createdAt,value
2019-01-12T00:00:18.299Z,102320.44
2019-01-12T00:02:47.085Z,102322.64
2019-01-12T00:05:15.932Z,102321.86
2019-01-12T00:07:44.794Z,102319.95
2019-01-12T00:10:13.626Z,102321.23
2019-01-12T00:12:42.414Z,102318.16
2019-01-12T00:15:11.202Z,102321.11
2019-01-12T00:17:40.070Z,102325.72
2019-01-12T00:20:08.865Z,102319.89
2019-01-12T00:22:37.658Z,102316.03
2019-01-12T00:25:06.495Z,102313.45
2019-01-12T00:27:35.352Z,102317.15
2019-01-12T00:30:04.812Z,102311.63
2019-01-12T00:32:33.599Z,102312.53
2019-01-12T00:35:02.482Z,102310.88
2019-01-12T00:37:31.268Z,102306.47
2019-01-12T00:40:00.055Z,102300.80
2019-01-12T00:42:28.841Z,102300.02
2019-01-12T00:44:57.616Z,102298.73
2019-01-12T00:47:26.401Z,102296.02
2019-01-12T00:49:55.222Z,102292.53
2019-01-12T00:52:24.008Z,102293.28
2019-01-12T00:54:52.795Z,102297.69
2019-01-12T00:57:21.687Z,102292.91
2019-01-12T00:59:50.474Z,102292.16
2019-01-12T01:02:19.251Z,102287.92
2019-01-12T01:04:48.046Z,102291.54
2019-01-12T01:07:17.206Z,102292.08
2019-01-12T01:09:45.996Z,102284.47
2019-01-12T01:12:14.811Z,102287.97
2019-01-12T01:14:43.711Z,102282.81
2019-01-12T01:17:12.484Z,102285.09
2019-01-12T01:19:41.325Z,102287.67
2019-01-12T01:22:10.119Z,102282.52
2019-01-12T01:24:45.538Z,102291.24
2019-01-12T01:27:07.755Z,102285.62
2019-01-12T01:29:36.546Z,102291.94
2019-01-12T01:32:05.371Z,102283.30
2019-01-12T01:34:34.154Z,102289.57
2019-01-12T01:37:02.981Z,102280.55
2019-01-12T01:39:31.804Z,102278.52
2019-01-12T01:42:00.639Z,102280.34
2019-01-12T01:44:29.417Z,102275.27
2019-01-12T01:46:58.201Z,102270.86
2019-01-12T01:49:27.004Z,102271.23
2019-01-12T01:51:55.796Z,102275.47
2019-01-12T01:54:24.606Z,102270.48
2019-01-12T01:56:53.452Z,102263.96
2019-01-12T01:59:22.216Z,102260.02
2019-01-12T02:01:51.007Z,102266.30
2019-01-12T02:04:19.799Z,102259.55
2019-01-12T02:06:48.583Z,102259.93
2019-01-12T02:09:17.359Z,102256.31
2019-01-12T02:11:46.128Z,102256.81
2019-01-12T02:14:14.950Z,102259.93
2019-01-12T02:16:43.867Z,102259.80
2019-01-12T02:19:12.681Z,102255.02
2019-01-12T02:21:41.482Z,102253.20
2019-01-12T02:24:10.323Z,102249.70
2019-01-12T02:26:39.294Z,102239.39
2019-01-12T02:29:08.155Z,102233.57
2019-01-12T02:31:36.991Z,102229.33
2019-01-12T02:34:05.804Z,102232.66
2019-01-12T02:36:34.567Z,102227.75
2019-01-12T02:39:05.029Z,102225.25
2019-01-12T02:41:33.863Z,102226.37
2019-01-12T02:44:02.699Z,102218.89
2019-01-12T02:46:31.588Z,102215.40
2019-01-12T02:49:00.398Z,102212.66
2019-01-12T02:51:29.182Z,102207.13
2019-01-12T02:53:57.968Z,102211.66
2019-01-12T02:56:26.744Z,102200.98
2019-01-12T02:58:55.574Z,102197.12
2019-01-12T03:01:24.454Z,102193.33
2019-01-12T03:03:53.395Z,102183.86
2019-01-12T03:06:22.244Z,102181.98
2019-01-12T03:08:51.051Z,102182.36
2019-01-12T03:11:19.881Z,102176.08
2019-01-12T03:13:48.771Z,102175.83
2019-01-12T03:16:17.553Z,102171.22
2019-01-12T03:18:46.334Z,102168.11
2019-01-12T03:21:15.119Z,102166.81
2019-01-12T03:23:43.955Z,102165.16
2019-01-12T03:26:12.721Z,102163.49
2019-01-12T03:28:41.620Z,102170.98
2019-01-12T03:31:10.472Z,102159.63
2019-01-12T03:33:39.301Z,102165.83
2019-01-12T03:36:08.102Z,102158.87
2019-01-12T03:38:36.971Z,102156.30
2019-01-12T03:41:05.813Z,102152.44
2019-01-12T03:43:34.584Z,102154.48
2019-01-12T03:46:03.377Z,102153.19
2019-01-12T03:48:32.187Z,102153.94
2019-01-12T03:51:01.020Z,102152.89
2019-01-12T03:53:29.833Z,102151.06
2019-01-12T03:55:58.651Z,102154.18
2019-01-12T03:58:27.525Z,102150.40
2019-01-12T04:00:56.310Z,102146.91
2019-01-12T04:03:25.174Z,102148.07
2019-01-12T04:05:53.981Z,102141.84
2019-01-12T04:08:22.829Z,102140.92
2019-01-12T04:10:51.600Z,102147.37
2019-01-12T04:13:20.435Z,102138.64
2019-01-12T04:15:49.257Z,102136.85
2019-01-12T04:18:18.039Z,102143.59
2019-01-12T04:20:46.877Z,102141.76
2019-01-12T04:23:15.757Z,102129.79
2019-01-12T04:25:44.640Z,102134.28
2019-01-12T04:28:13.431Z,102126.26
2019-01-12T04:30:42.235Z,102119.03
2019-01-12T04:33:11.012Z,102121.48
2019-01-12T04:35:39.798Z,102115.41
2019-01-12T04:38:08.631Z,102121.48
2019-01-12T04:40:37.411Z,102115.04
2019-01-12T04:43:06.278Z,102113.21
2019-01-12T04:45:35.115Z,102111.77
2019-01-12T04:48:03.911Z,102101.46
2019-01-12T04:50:32.868Z,102099.30
2019-01-12T04:53:01.712Z,102102.38
2019-01-12T04:55:30.498Z,102092.45
2019-01-12T04:57:59.293Z,102089.88
2019-01-12T05:00:28.078Z,102081.02
2019-01-12T05:02:56.977Z,102078.06
2019-01-12T05:05:25.770Z,102072.92
2019-01-12T05:07:54.679Z,102072.17
2019-01-12T05:10:23.534Z,102063.66
2019-01-12T05:12:52.380Z,102064.95
2019-01-12T05:15:21.232Z,102065.23
2019-01-12T05:17:50.026Z,102062.66
2019-01-12T05:20:20.056Z,102054.05
2019-01-12T05:22:48.991Z,102055.72
2019-01-12T05:25:17.786Z,102052.77
2019-01-12T05:27:46.693Z,102047.98
2019-01-12T05:30:18.686Z,102038.97
2019-01-12T05:32:47.522Z,102038.59
2019-01-12T05:35:16.435Z,102034.48
2019-01-12T05:37:45.330Z,102037.06
2019-01-12T05:40:14.111Z,102031.25
2019-01-12T05:42:42.949Z,102030.33
2019-01-12T05:45:12.156Z,102030.70
2019-01-12T05:47:40.950Z,102017.08
2019-01-12T05:50:11.124Z,102018.36
2019-01-12T05:52:39.954Z,102012.42
2019-01-12T05:55:08.745Z,102007.27
2019-01-12T05:57:37.527Z,102004.32
2019-01-12T06:00:10.283Z,102007.44
2019-01-12T06:02:39.107Z,102002.28
2019-01-12T06:05:07.900Z,101998.26
2019-01-12T06:07:36.675Z,102003.41
2019-01-12T06:10:05.695Z,101999.17
2019-01-12T06:12:34.511Z,101995.69
2019-01-12T06:15:03.312Z,101990.94
2019-01-12T06:17:32.133Z,101986.67
2019-01-12T06:20:01.255Z,101987.20
2019-01-12T06:22:30.086Z,101975.86
2019-01-12T06:24:58.919Z,101975.33
2019-01-12T06:27:27.706Z,101970.17
2019-01-12T06:29:56.510Z,101977.37
2019-01-12T06:32:25.347Z,101971.30
2019-01-12T06:34:54.140Z,101971.18
2019-01-12T06:37:22.949Z,101971.18
2019-01-12T06:39:51.735Z,101965.49
2019-01-12T06:42:20.573Z,101962.38
2019-01-12T06:44:49.386Z,101955.28
2019-01-12T06:47:18.156Z,101952.58
2019-01-12T06:49:47.015Z,101952.58
2019-01-12T06:52:15.839Z,101944.86
2019-01-12T06:54:44.711Z,101946.52
2019-01-12T06:57:13.543Z,101942.13
2019-01-12T06:59:42.368Z,101936.59
2019-01-12T07:02:11.210Z,101919.31
2019-01-12T07:04:40.047Z,101931.82
2019-01-12T07:07:08.870Z,101937.88
2019-01-12T07:09:37.706Z,101928.99
2019-01-12T07:12:06.651Z,101918.19
2019-01-12T07:14:35.430Z,101917.81
2019-01-12T07:17:04.267Z,101915.45
2019-01-12T07:19:33.267Z,101919.70
2019-01-12T07:22:02.042Z,101905.03
2019-01-12T07:24:30.954Z,101910.31
2019-01-12T07:26:59.763Z,101900.01
2019-01-12T07:29:28.668Z,101898.72
2019-01-12T07:31:57.527Z,101900.92
2019-01-12T07:34:26.322Z,101900.01
2019-01-12T07:36:55.114Z,101900.01
2019-01-12T07:39:23.911Z,101898.59
2019-01-12T07:41:53.173Z,101889.05
2019-01-12T07:44:21.959Z,101887.00
2019-01-12T07:46:50.760Z,101878.38
2019-01-12T07:49:19.541Z,101880.95
2019-01-12T07:51:48.380Z,101884.55
2019-01-12T07:54:17.165Z,101883.80
2019-01-12T07:56:45.940Z,101883.92
2019-01-12T07:59:14.812Z,101894.23
2019-01-12T08:01:43.616Z,101890.90
2019-01-12T08:04:12.558Z,101894.23
2019-01-12T08:06:41.408Z,101898.78
2019-01-12T08:09:10.247Z,101878.02
2019-01-12T08:11:39.034Z,101874.44
2019-01-12T08:14:07.866Z,101868.38
2019-01-12T08:16:36.671Z,101858.08
2019-01-12T08:19:05.443Z,101866.34
2019-01-12T08:21:34.239Z,101858.23
2019-01-12T08:24:03.070Z,101854.53
2019-01-12T08:26:32.023Z,101837.53
2019-01-12T08:29:00.826Z,101848.37
2019-01-12T08:31:30.752Z,101851.44
2019-01-12T08:33:59.535Z,101847.36
2019-01-12T08:36:28.376Z,101845.18
2019-01-12T08:38:57.226Z,101853.72
2019-01-12T08:41:26.090Z,101846.78
2019-01-12T08:43:54.895Z,101834.55
2019-01-12T08:46:23.672Z,101832.63
2019-01-12T08:48:52.487Z,101818.84
2019-01-12T08:51:21.370Z,101797.32
2019-01-12T08:53:50.532Z,101798.48
2019-01-12T08:56:19.387Z,101799.02
2019-01-12T08:58:48.258Z,101795.66
2019-01-12T09:01:17.170Z,101787.43
2019-01-12T09:03:46.100Z,101779.06
2019-01-12T09:06:14.959Z,101783.84
2019-01-12T09:08:43.868Z,101776.60
2019-01-12T09:11:12.714Z,101781.91
2019-01-12T09:13:41.504Z,101782.19
2019-01-12T09:16:10.280Z,101782.08
2019-01-12T09:18:39.091Z,101785.72
2019-01-12T09:21:08.017Z,101777.98
2019-01-12T09:23:36.833Z,101757.11
2019-01-12T09:26:05.691Z,101752.11
2019-01-12T09:28:34.572Z,101749.38
2019-01-12T09:31:03.443Z,101742.56
2019-01-12T09:33:32.246Z,101733.66
2019-01-12T09:36:01.057Z,101725.33
2019-01-12T09:38:29.883Z,101726.73
2019-01-12T09:40:58.691Z,101721.84
2019-01-12T09:43:27.531Z,101719.56
2019-01-12T09:45:56.371Z,101718.78
2019-01-12T09:48:25.211Z,101713.12
2019-01-12T09:50:54.067Z,101716.20
2019-01-12T09:53:22.874Z,101710.13
2019-01-12T09:58:26.824Z,101714.53
2019-01-12T10:00:55.708Z,101703.84
2019-01-12T10:03:24.543Z,101696.64
2019-01-12T10:05:53.395Z,101700.77
2019-01-12T10:08:22.259Z,101695.61
2019-01-12T10:10:51.039Z,101691.48
2019-01-12T10:13:19.844Z,101685.16
2019-01-12T10:15:48.671Z,101677.31
2019-01-12T10:18:17.526Z,101677.31
2019-01-12T10:20:46.306Z,101671.89
2019-01-12T10:23:15.189Z,101669.84
2019-01-12T10:25:44.027Z,101667.00
2019-01-12T10:28:12.836Z,101655.28
2019-01-12T10:30:41.709Z,101654.14
2019-01-12T10:33:10.515Z,101652.35
2019-01-12T10:35:39.303Z,101643.59
2019-01-12T10:38:08.113Z,101640.89
2019-01-12T10:40:36.940Z,101633.54
2019-01-12T10:43:05.735Z,101640.24
2019-01-12T10:45:34.544Z,101634.56
2019-01-12T10:48:03.341Z,101629.28
2019-01-12T10:50:33.527Z,101624.13
2019-01-12T10:53:02.642Z,101616.53
2019-01-12T10:55:31.448Z,101607.50
2019-01-12T10:58:01.259Z,101608.17
2019-01-12T11:00:32.594Z,101599.78
2019-01-12T11:03:01.380Z,101592.43
2019-01-12T11:05:30.173Z,101586.89
2019-01-12T11:07:58.992Z,101587.80
2019-01-12T11:10:27.824Z,101578.27
2019-01-12T11:12:56.672Z,101572.83
2019-01-12T11:15:25.459Z,101569.11
2019-01-12T11:17:54.259Z,101548.58
2019-01-12T11:20:23.087Z,101564.69
2019-01-12T11:22:51.892Z,101545.11
2019-01-12T11:25:20.705Z,101540.06
2019-01-12T11:27:49.521Z,101533.89
2019-01-12T11:30:18.703Z,101539.44
2019-01-12T11:32:47.599Z,101527.30
2019-01-12T11:35:16.374Z,101526.16
2019-01-12T11:37:45.163Z,101515.42
2019-01-12T11:40:18.091Z,101514.93
2019-01-12T11:42:47.084Z,101508.34
2019-01-12T11:45:15.856Z,101502.28
2019-01-12T11:47:44.687Z,101493.50
2019-01-12T11:50:14.266Z,101488.86
2019-01-12T11:52:43.142Z,101487.05
2019-01-12T11:55:12.230Z,101480.08
2019-01-12T11:57:41.096Z,101469.52
2019-01-12T12:04:50.500Z,101453.23
2019-01-12T12:07:19.515Z,101455.05
2019-01-12T12:09:48.295Z,101446.67
2019-01-12T12:12:17.079Z,101444.20
2019-01-12T12:14:45.923Z,101442.67
2019-01-12T12:17:14.709Z,101443.30
2019-01-12T12:19:43.534Z,101433.75
2019-01-12T12:22:12.335Z,101433.22
2019-01-12T12:24:41.110Z,101435.42
2019-01-12T12:27:09.950Z,101417.88
2019-01-12T12:29:38.760Z,101419.70
2019-01-12T12:32:07.635Z,101415.02
2019-01-12T12:34:36.508Z,101406.52
2019-01-12T12:37:05.301Z,101407.52
2019-01-12T12:39:34.084Z,101396.05
2019-01-12T12:42:02.980Z,101401.48
2019-01-12T12:44:31.888Z,101401.21
2019-01-12T12:47:00.675Z,101390.61
2019-01-12T12:49:29.575Z,101388.16
2019-01-12T12:51:58.511Z,101384.53
2019-01-12T12:54:27.374Z,101378.60
2019-01-12T12:56:56.170Z,101371.63
2019-01-12T12:59:25.040Z,101372.67
2019-01-12T13:01:53.831Z,101351.45
2019-01-12T13:04:22.696Z,101347.05
2019-01-12T13:06:51.488Z,101351.58
2019-01-12T13:09:20.374Z,101351.44
2019-01-12T13:11:49.211Z,101344.83
2019-01-12T13:14:17.999Z,101340.42
2019-01-12T13:16:46.841Z,101334.05
2019-01-12T13:19:15.759Z,101328.34
2019-01-12T13:21:44.615Z,101323.69
2019-01-12T13:24:13.483Z,101313.97
2019-01-12T13:26:42.324Z,101316.66
2019-01-12T13:29:11.184Z,101311.48
2019-01-12T13:31:39.995Z,101304.16
2019-01-12T13:34:09.444Z,101312.01
2019-01-12T13:36:38.311Z,101307.36
2019-01-12T13:39:07.908Z,101310.43
2019-01-12T13:41:36.790Z,101312.47
2019-01-12T13:44:05.600Z,101305.38
2019-01-12T13:46:34.511Z,101301.34
2019-01-12T13:49:03.401Z,101304.41
2019-01-12T13:51:32.486Z,101303.34
2019-01-12T13:54:01.303Z,101297.41
2019-01-12T13:56:30.180Z,101288.11
2019-01-12T13:58:59.016Z,101288.43
2019-01-12T14:01:27.916Z,101293.44
2019-01-12T14:03:56.756Z,101283.10
2019-01-12T14:06:25.615Z,101292.05
2019-01-12T14:08:54.411Z,101289.56
2019-01-12T14:11:23.236Z,101285.98
2019-01-12T14:13:52.072Z,101279.77
2019-01-12T14:16:20.904Z,101288.59
2019-01-12T14:18:52.791Z,101286.69
2019-01-12T14:21:21.690Z,101286.33
2019-01-12T14:23:50.532Z,101294.87
2019-01-12T14:26:19.332Z,101304.17
2019-01-12T14:28:48.620Z,101311.31
2019-01-12T14:31:17.419Z,101298.42
2019-01-12T14:33:46.206Z,101300.39
2019-01-12T14:36:15.037Z,101305.03
2019-01-12T14:38:45.042Z,101305.03
2019-01-12T14:41:13.866Z,101303.48
2019-01-12T14:43:42.635Z,101310.95
2019-01-12T14:46:11.438Z,101315.44
2019-01-12T14:48:40.223Z,101313.27
2019-01-12T14:51:09.016Z,101313.66
2019-01-12T14:53:37.808Z,101312.23
2019-01-12T14:56:06.595Z,101311.33
2019-01-12T14:58:35.388Z,101316.25
2019-01-12T15:01:04.203Z,101309.50
2019-01-12T15:03:33.039Z,101314.80
2019-01-12T15:06:01.941Z,101316.09
2019-01-12T15:08:30.841Z,101308.11
2019-01-12T15:10:59.664Z,101293.48
2019-01-12T15:13:28.564Z,101290.03
2019-01-12T15:15:57.424Z,101296.48
2019-01-12T15:18:26.223Z,101291.19
2019-01-12T15:20:55.157Z,101289.28
2019-01-12T15:23:24.035Z,101276.75
2019-01-12T15:25:52.837Z,101287.47
2019-01-12T15:28:21.644Z,101285.56
2019-01-12T15:30:50.474Z,101288.02
2019-01-12T15:33:19.307Z,101283.66
2019-01-12T15:35:48.147Z,101282.23
2019-01-12T15:38:17.008Z,101288.69
2019-01-12T15:40:45.917Z,101283.81
2019-01-12T15:43:14.772Z,101286.27
2019-01-12T15:45:43.650Z,101284.58
2019-01-12T15:48:12.504Z,101279.58
2019-01-12T15:50:41.275Z,101282.31
2019-01-12T15:53:10.054Z,101286.05
2019-01-12T15:55:38.945Z,101282.98
2019-01-12T15:58:07.739Z,101275.88
2019-01-12T16:00:36.563Z,101277.53
2019-01-12T16:03:05.415Z,101281.33
2019-01-12T16:05:34.205Z,101281.72
2019-01-12T16:08:03.026Z,101275.64
2019-01-12T16:10:31.896Z,101275.64
2019-01-12T16:13:01.579Z,101270.09
2019-01-12T16:15:30.408Z,101267.00
2019-01-12T16:17:59.445Z,101259.39
2019-01-12T16:20:32.391Z,101252.02
2019-01-12T16:23:01.195Z,101240.56
2019-01-12T16:25:30.077Z,101246.78
2019-01-12T16:27:58.895Z,101244.98
2019-01-12T16:30:27.756Z,101246.40
2019-01-12T16:32:56.640Z,101242.53
2019-01-12T16:35:25.431Z,101246.02
2019-01-12T16:37:54.210Z,101241.33
2019-01-12T16:40:23.812Z,101242.39
2019-01-12T16:42:52.614Z,101232.70
2019-01-12T16:45:21.414Z,101239.03
2019-01-12T16:47:50.287Z,101230.53
2019-01-12T16:50:19.104Z,101234.84
2019-01-12T16:52:48.024Z,101241.81
2019-01-12T16:55:17.039Z,101251.63
2019-01-12T16:57:46.160Z,101248.27
2019-01-12T17:00:17.774Z,101244.16
2019-01-12T17:02:46.626Z,101234.90
2019-01-12T17:05:15.443Z,101226.02
2019-01-12T17:07:44.282Z,101226.27
2019-01-12T17:10:15.148Z,101220.20
2019-01-12T17:12:43.997Z,101221.49
2019-01-12T17:15:14.165Z,101227.70
2019-01-12T17:17:42.946Z,101232.56
2019-01-12T17:20:15.966Z,101232.05
2019-01-12T17:22:45.203Z,101234.63
2019-01-12T17:25:13.969Z,101235.44
2019-01-12T17:27:42.876Z,101239.55
2019-01-12T17:30:14.774Z,101234.78
2019-01-12T17:32:43.585Z,101234.30
2019-01-12T17:35:12.944Z,101235.97
2019-01-12T17:37:41.755Z,101239.84
2019-01-12T17:40:11.662Z,101230.91
2019-01-12T17:42:40.447Z,101229.23
2019-01-12T17:45:13.150Z,101226.27
2019-01-12T17:47:41.945Z,101241.75
2019-01-12T17:50:12.559Z,101238.27
2019-01-12T17:52:41.415Z,101242.80
2019-01-12T17:55:12.409Z,101239.54
2019-01-12T17:57:41.664Z,101245.70
2019-01-12T18:00:13.827Z,101244.18
2019-01-12T18:02:42.646Z,101240.31
2019-01-12T18:05:11.465Z,101244.56
2019-01-12T18:07:40.303Z,101232.95
2019-01-12T18:10:10.429Z,101232.95
2019-01-12T18:12:39.228Z,101231.80
2019-01-12T18:15:09.891Z,101230.13
2019-01-12T18:17:38.747Z,101227.64
2019-01-12T18:20:09.208Z,101224.00
2019-01-12T18:22:38.449Z,101231.88
2019-01-12T18:25:08.832Z,101224.42
2019-01-12T18:27:37.703Z,101233.03
2019-01-12T18:30:10.069Z,101236.52
2019-01-12T18:32:38.911Z,101232.03
2019-01-12T18:35:07.868Z,101241.45
2019-01-12T18:37:36.811Z,101237.96
2019-01-12T18:40:07.436Z,101250.09
2019-01-12T18:42:37.004Z,101243.41
2019-01-12T18:45:06.659Z,101244.41
2019-01-12T18:47:35.473Z,101243.51
2019-01-12T18:50:04.970Z,101244.41
2019-01-12T18:52:33.763Z,101245.22
2019-01-12T18:55:02.592Z,101240.45
2019-01-12T18:57:31.516Z,101243.13
2019-01-12T19:00:00.491Z,101242.73
2019-01-12T19:02:29.271Z,101241.73
2019-01-12T19:04:58.187Z,101241.73
2019-01-12T19:07:27.095Z,101236.95
2019-01-12T19:09:55.947Z,101238.25
2019-01-12T19:12:24.779Z,101244.80
2019-01-12T19:14:53.586Z,101242.88
2019-01-12T19:17:22.420Z,101241.30
2019-01-12T19:19:51.212Z,101230.97
2019-01-12T19:22:20.028Z,101236.91
2019-01-12T19:24:48.810Z,101237.71
2019-01-12T19:27:17.642Z,101236.80
2019-01-12T19:29:46.548Z,101234.75
2019-01-12T19:32:16.990Z,101235.38
2019-01-12T19:34:45.780Z,101228.93
2019-01-12T19:37:14.557Z,101227.16
2019-01-12T19:39:43.408Z,101215.41
2019-01-12T19:42:12.262Z,101216.33
2019-01-12T19:44:41.123Z,101215.05
2019-01-12T19:47:09.996Z,101217.23
2019-01-12T19:49:38.822Z,101216.33
2019-01-12T19:52:07.615Z,101215.05
2019-01-12T19:54:36.460Z,101208.83
2019-01-12T19:57:05.313Z,101210.41
2019-01-12T19:59:34.106Z,101209.11
2019-01-12T20:02:02.969Z,101209.50
2019-01-12T20:04:31.970Z,101209.78
2019-01-12T20:07:00.769Z,101208.49
2019-01-12T20:09:29.586Z,101205.01
2019-01-12T20:11:58.374Z,101206.69
2019-01-12T20:14:27.147Z,101210.55
2019-01-12T20:16:55.928Z,101212.85
2019-01-12T20:19:24.764Z,101207.30
2019-01-12T20:21:53.611Z,101198.27
2019-01-12T20:24:22.531Z,101204.72
2019-01-12T20:26:51.323Z,101200.08
2019-01-12T20:29:21.319Z,101208.98
2019-01-12T20:34:03.791Z,101209.78
2019-01-12T20:36:43.516Z,101203.73
2019-01-12T20:40:20.450Z,101193.31
2019-01-12T20:43:00.196Z,101197.58
2019-01-12T20:45:39.954Z,101192.41
2019-01-12T20:48:21.900Z,101194.99
2019-01-12T20:51:04.095Z,101193.80
2019-01-12T20:53:48.675Z,101199.87
2019-01-12T20:56:24.386Z,101195.24
2019-01-12T20:59:02.458Z,101190.38
2019-01-12T21:01:46.087Z,101195.30
2019-01-12T21:04:41.835Z,101185.88
2019-01-12T21:07:38.681Z,101187.02
2019-01-12T21:10:16.046Z,101183.41
2019-01-12T21:12:58.632Z,101176.95
2019-01-12T21:15:32.423Z,101174.12
2019-01-12T21:18:01.283Z,101183.15
2019-01-12T21:20:30.183Z,101176.41
2019-01-12T21:22:59.007Z,101175.27
2019-01-12T21:25:27.868Z,101169.42
2019-01-12T21:27:56.701Z,101168.81
2019-01-12T21:30:25.556Z,101169.20
2019-01-12T21:32:54.342Z,101173.84
2019-01-12T21:35:23.170Z,101171.48
2019-01-12T21:37:51.953Z,101164.55
2019-01-12T21:40:20.804Z,101164.13
2019-01-12T21:42:49.632Z,101162.84
2019-01-12T21:45:18.505Z,101160.27
2019-01-12T21:47:47.360Z,101153.81
2019-01-12T21:50:16.165Z,101163.52
2019-01-12T21:52:44.978Z,101157.84
2019-01-12T21:55:13.779Z,101159.41
2019-01-12T21:57:42.586Z,101164.44
2019-01-12T22:00:14.248Z,101166.63
2019-01-12T22:02:43.147Z,101168.58
2019-01-12T22:05:12.035Z,101169.58
2019-01-12T22:07:40.835Z,101168.29
2019-01-12T22:10:18.833Z,101169.71
2019-01-12T22:12:40.471Z,101167.67
2019-01-12T22:15:09.915Z,101171.02
2019-01-12T22:17:38.733Z,101163.05
2019-01-12T22:20:10.315Z,101162.30
2019-01-12T22:22:39.102Z,101164.11
2019-01-12T22:25:08.118Z,101168.46
2019-01-12T22:27:37.021Z,101166.41
2019-01-12T22:30:09.179Z,101160.09
2019-01-12T22:32:38.062Z,101159.19
2019-01-12T22:35:06.881Z,101163.57
2019-01-12T22:37:35.714Z,101161.48
2019-01-12T22:40:07.737Z,101160.70
2019-01-12T22:42:36.568Z,101153.35
2019-01-12T22:45:05.743Z,101153.20
2019-01-12T22:47:34.527Z,101146.75
2019-01-12T22:50:03.412Z,101155.00
2019-01-12T22:52:32.221Z,101142.88
2019-01-12T22:55:01.050Z,101138.23
2019-01-12T22:57:29.896Z,101125.59
2019-01-12T22:59:58.684Z,101131.11
2019-01-12T23:02:27.535Z,101125.18
2019-01-12T23:04:56.393Z,101121.70
2019-01-12T23:07:25.310Z,101125.18
2019-01-12T23:09:54.086Z,101122.22
2019-01-12T23:12:22.910Z,101119.63
2019-01-12T23:14:51.703Z,101125.56
2019-01-12T23:17:20.575Z,101120.41
2019-01-12T23:19:49.347Z,101118.83
2019-01-12T23:22:18.335Z,101114.57
2019-01-12T23:24:47.125Z,101126.18
2019-01-12T23:27:15.942Z,101111.73
2019-01-12T23:29:44.828Z,101115.70
2019-01-12T23:32:14.631Z,101124.64
2019-01-12T23:34:43.461Z,101122.16
2019-01-12T23:37:12.299Z,101115.06
2019-01-12T23:39:41.064Z,101113.35
2019-01-12T23:42:09.851Z,101104.84
2019-01-12T23:44:38.628Z,101107.94
2019-01-12T23:47:07.478Z,101103.30
2019-01-12T23:49:36.255Z,101115.52
2019-01-12T23:52:05.395Z,101115.13
2019-01-12T23:54:34.191Z,101111.26
2019-01-12T23:57:02.995Z,101107.00
2019-01-12T23:59:31.877Z,101105.81
